Wattle Ponds, New South Wales

7:47 PM AEST on August 31, 2015 (GMT +1000)
SINGLETON HEIGHTS | | Change Station
CLOSE
Current Station
Personal Weather Station
Location: Singleton Heights, NSW
Elevation: 197 ft
Nearby Weather Stations

Elev 197 ft 32.55 °S, 151.17 °E | Updated 6 minutes ago

Scattered Clouds
Scattered Clouds
57.9 °F
Feels Like 57.9 °F
N
2.5
Wind Variable Wind from SE
Gusts 4.9 mph

Today
High -- | Low -- °F
--% Chance of Precip.
Yesterday
High -- | Low -- °F
Precip. -- in
6:14 AM 5:37 PM
Waning Gibbous, 96% visible
Pressure 29.95 in
Visibility 6.2 miles
Clouds Few 4000 ft
Scattered Clouds 7000 ft
Dew Point 43 °F
Humidity 58%
Rainfall 0.00 in
Snow Depth Not available.
UV 0.0 out of 12
Pollen Not available.
Air Quality Not available.
Flu Activity Not available.
METAR YWLM 310900Z 24004KT 9999 FEW040 SCT070 10/08 Q1014 NOSIG
Pressure 29.95 in
Visibility 6.2 miles
Clouds Few 4000 ft
Scattered Clouds 7000 ft
Dew Point 43 °F
Humidity 58%
Rainfall 0.00 in
Snow Depth Not available.
UV 0.0 out of 12
Pollen Not available.
Air Quality Not available.
Flu Activity Not available.
METAR YWLM 310900Z 24004KT 9999 FEW040 SCT070 10/08 Q1014 NOSIG

10-Day Weather Forecast

×

Almanac

Astronomy

Aug. 31, 2015 Rise Set
Actual Time
Civil Twilight
Nautical Twilight
Astronomical Twilight
Moon
Length of Visible Light
Length of Day
Tomorrow will be .
, % of the Moon is Illuminated

Today's Extremes

Country Highs Country Lows

Community

WunderPhotos

Upload Photos

1,851,229 photos uploaded!

WunderBlogs® & News

Nearby

Air Quality

  Air Quality AQ Index Pollutant
Not available.

Snow Depth

Station Depth Elevation

Earthquake Activity

City Distance Mag. Time & Date
Minimum magnitude displayed is 2.5.

Coastal Water Temperatures

Place Temperature

Stations

Nearby Weather Stations

Station Location Temp. Windchill Dew Point Humidity Wind Precip. Elev Updated Type